sensor_id;sensor_type;location;lat;lon;timestamp;temperature;humidity
3053;DHT22;1536;51.098;6.414;2023-08-01T00:01:42;19.60;99.90
3053;DHT22;1536;51.098;6.414;2023-08-01T00:04:09;19.60;99.90
3053;DHT22;1536;51.098;6.414;2023-08-01T00:06:37;19.60;99.90
3053;DHT22;1536;51.098;6.414;2023-08-01T00:09:03;19.60;99.90
3053;DHT22;1536;51.098;6.414;2023-08-01T00:11:30;19.60;99.90
3053;DHT22;1536;51.098;6.414;2023-08-01T00:13:57;19.60;99.90
3053;DHT22;1536;51.098;6.414;2023-08-01T00:16:24;19.60;99.90
3053;DHT22;1536;51.098;6.414;2023-08-01T00:18:50;19.60;99.90
3053;DHT22;1536;51.098;6.414;2023-08-01T00:21:17;19.60;99.90
3053;DHT22;1536;51.098;6.414;2023-08-01T00:23:45;19.60;99.90
3053;DHT22;1536;51.098;6.414;2023-08-01T00:26:12;19.60;99.90
3053;DHT22;1536;51.098;6.414;2023-08-01T00:28:39;19.60;99.90
3053;DHT22;1536;51.098;6.414;2023-08-01T00:31:06;19.60;99.90
3053;DHT22;1536;51.098;6.414;2023-08-01T00:33:34;19.60;99.90
3053;DHT22;1536;51.098;6.414;2023-08-01T00:36:01;19.50;99.90
3053;DHT22;1536;51.098;6.414;2023-08-01T00:38:28;19.50;99.90
3053;DHT22;1536;51.098;6.414;2023-08-01T00:40:56;19.60;99.90
3053;DHT22;1536;51.098;6.414;2023-08-01T00:43:23;19.50;99.90
3053;DHT22;1536;51.098;6.414;2023-08-01T00:45:57;19.50;99.90
3053;DHT22;1536;51.098;6.414;2023-08-01T00:48:25;19.50;99.90
3053;DHT22;1536;51.098;6.414;2023-08-01T00:50:52;19.50;99.90
3053;DHT22;1536;51.098;6.414;2023-08-01T00:53:19;19.50;99.90
3053;DHT22;1536;51.098;6.414;2023-08-01T00:55:46;19.50;99.90
3053;DHT22;1536;51.098;6.414;2023-08-01T00:58:14;19.50;99.90
3053;DHT22;1536;51.098;6.414;2023-08-01T01:00:41;19.50;99.90
3053;DHT22;1536;51.098;6.414;2023-08-01T01:03:07;19.50;99.90
3053;DHT22;1536;51.098;6.414;2023-08-01T01:05:36;19.50;99.90
3053;DHT22;1536;51.098;6.414;2023-08-01T01:08:03;19.50;99.90
3053;DHT22;1536;51.098;6.414;2023-08-01T01:10:30;19.50;99.90
3053;DHT22;1536;51.098;6.414;2023-08-01T01:12:57;19.40;99.90
3053;DHT22;1536;51.098;6.414;2023-08-01T01:15:26;19.40;99.90
3053;DHT22;1536;51.098;6.414;2023-08-01T01:17:52;19.40;99.90
3053;DHT22;1536;51.098;6.414;2023-08-01T01:20:22;19.40;99.90
3053;DHT22;1536;51.098;6.414;2023-08-01T01:22:54;19.40;99.90
3053;DHT22;1536;51.098;6.414;2023-08-01T01:25:22;19.40;99.90
3053;DHT22;1536;51.098;6.414;2023-08-01T01:27:51;19.40;99.90
3053;DHT22;1536;51.098;6.414;2023-08-01T01:30:20;19.40;99.90
3053;DHT22;1536;51.098;6.414;2023-08-01T01:32:48;19.40;99.90
3053;DHT22;1536;51.098;6.414;2023-08-01T01:35:15;19.40;99.90
3053;DHT22;1536;51.098;6.414;2023-08-01T01:37:42;19.40;99.90
3053;DHT22;1536;51.098;6.414;2023-08-01T01:40:10;19.40;99.90
3053;DHT22;1536;51.098;6.414;2023-08-01T01:42:39;19.40;99.90
3053;DHT22;1536;51.098;6.414;2023-08-01T01:45:06;19.40;99.90
3053;DHT22;1536;51.098;6.414;2023-08-01T01:47:33;19.40;99.90
3053;DHT22;1536;51.098;6.414;2023-08-01T01:50:00;19.40;99.90
3053;DHT22;1536;51.098;6.414;2023-08-01T01:52:28;19.30;99.90
3053;DHT22;1536;51.098;6.414;2023-08-01T01:54:55;19.30;99.90
3053;DHT22;1536;51.098;6.414;2023-08-01T01:57:23;19.30;99.90
3053;DHT22;1536;51.098;6.414;2023-08-01T01:59:49;19.30;99.90
3053;DHT22;1536;51.098;6.414;2023-08-01T02:02:16;19.30;99.90
3053;DHT22;1536;51.098;6.414;2023-08-01T02:04:46;19.30;99.90
3053;DHT22;1536;51.098;6.414;2023-08-01T02:07:14;19.30;99.90
3053;DHT22;1536;51.098;6.414;2023-08-01T02:09:41;19.30;99.90
3053;DHT22;1536;51.098;6.414;2023-08-01T02:12:08;19.30;99.90
3053;DHT22;1536;51.098;6.414;2023-08-01T02:14:38;19.30;99.90
3053;DHT22;1536;51.098;6.414;2023-08-01T02:17:05;19.30;99.90
3053;DHT22;1536;51.098;6.414;2023-08-01T02:19:32;19.30;99.90
3053;DHT22;1536;51.098;6.414;2023-08-01T02:21:59;19.30;99.90
3053;DHT22;1536;51.098;6.414;2023-08-01T02:24:27;19.30;99.90
3053;DHT22;1536;51.098;6.414;2023-08-01T02:26:53;19.30;99.90
3053;DHT22;1536;51.098;6.414;2023-08-01T02:29:22;19.30;99.90
3053;DHT22;1536;51.098;6.414;2023-08-01T02:31:50;19.30;99.90
3053;DHT22;1536;51.098;6.414;2023-08-01T02:34:17;19.30;99.90
3053;DHT22;1536;51.098;6.414;2023-08-01T02:36:44;19.20;99.90
3053;DHT22;1536;51.098;6.414;2023-08-01T02:39:11;19.30;99.90
3053;DHT22;1536;51.098;6.414;2023-08-01T02:41:37;19.30;99.90
3053;DHT22;1536;51.098;6.414;2023-08-01T02:44:04;19.20;99.90
3053;DHT22;1536;51.098;6.414;2023-08-01T02:46:31;19.20;99.90
3053;DHT22;1536;51.098;6.414;2023-08-01T02:49:00;19.20;99.90
3053;DHT22;1536;51.098;6.414;2023-08-01T02:51:26;19.20;99.90
3053;DHT22;1536;51.098;6.414;2023-08-01T02:53:53;19.10;99.90
3053;DHT22;1536;51.098;6.414;2023-08-01T02:56:20;19.10;99.90
3053;DHT22;1536;51.098;6.414;2023-08-01T02:58:46;19.10;99.90
3053;DHT22;1536;51.098;6.414;2023-08-01T03:01:13;19.10;99.90
3053;DHT22;1536;51.098;6.414;2023-08-01T03:03:41;19.10;99.90
3053;DHT22;1536;51.098;6.414;2023-08-01T03:06:09;19.10;99.90
3053;DHT22;1536;51.098;6.414;2023-08-01T03:08:36;19.00;99.90
3053;DHT22;1536;51.098;6.414;2023-08-01T03:11:03;19.00;99.90
3053;DHT22;1536;51.098;6.414;2023-08-01T03:13:30;18.90;99.90
3053;DHT22;1536;51.098;6.414;2023-08-01T03:15:57;18.90;99.90
3053;DHT22;1536;51.098;6.414;2023-08-01T03:18:23;18.90;99.90
3053;DHT22;1536;51.098;6.414;2023-08-01T03:20:50;18.80;99.90
3053;DHT22;1536;51.098;6.414;2023-08-01T03:23:19;18.80;99.90
3053;DHT22;1536;51.098;6.414;2023-08-01T03:25:45;18.80;99.90
3053;DHT22;1536;51.098;6.414;2023-08-01T03:28:18;18.80;99.90
3053;DHT22;1536;51.098;6.414;2023-08-01T03:30:45;18.70;99.90
3053;DHT22;1536;51.098;6.414;2023-08-01T03:33:15;18.70;99.90
3053;DHT22;1536;51.098;6.414;2023-08-01T03:35:41;18.60;99.90
3053;DHT22;1536;51.098;6.414;2023-08-01T03:38:08;18.60;99.90
3053;DHT22;1536;51.098;6.414;2023-08-01T03:40:37;18.60;99.90
3053;DHT22;1536;51.098;6.414;2023-08-01T03:43:04;18.60;99.90
3053;DHT22;1536;51.098;6.414;2023-08-01T03:45:31;18.50;99.90
3053;DHT22;1536;51.098;6.414;2023-08-01T03:48:00;18.60;99.90
3053;DHT22;1536;51.098;6.414;2023-08-01T03:50:26;18.50;99.90
3053;DHT22;1536;51.098;6.414;2023-08-01T03:52:53;18.50;99.90
3053;DHT22;1536;51.098;6.414;2023-08-01T03:55:20;18.50;99.90
3053;DHT22;1536;51.098;6.414;2023-08-01T03:57:48;18.50;99.90
3053;DHT22;1536;51.098;6.414;2023-08-01T04:00:15;18.50;99.90
3053;DHT22;1536;51.098;6.414;2023-08-01T04:02:44;18.40;99.90
3053;DHT22;1536;51.098;6.414;2023-08-01T04:05:11;18.40;99.90
3053;DHT22;1536;51.098;6.414;2023-08-01T04:07:38;18.40;99.90
3053;DHT22;1536;51.098;6.414;2023-08-01T04:10:06;18.40;99.90
3053;DHT22;1536;51.098;6.414;2023-08-01T04:12:33;18.40;99.90
3053;DHT22;1536;51.098;6.414;2023-08-01T04:15:02;18.40;99.90
3053;DHT22;1536;51.098;6.414;2023-08-01T04:17:29;18.50;99.90
3053;DHT22;1536;51.098;6.414;2023-08-01T04:19:56;18.40;99.90
3053;DHT22;1536;51.098;6.414;2023-08-01T04:22:23;18.40;99.90
3053;DHT22;1536;51.098;6.414;2023-08-01T04:24:49;18.40;99.90
3053;DHT22;1536;51.098;6.414;2023-08-01T04:27:17;18.40;99.90
3053;DHT22;1536;51.098;6.414;2023-08-01T04:29:44;18.40;99.90
3053;DHT22;1536;51.098;6.414;2023-08-01T04:32:13;18.40;99.90
3053;DHT22;1536;51.098;6.414;2023-08-01T04:34:40;18.40;99.90
3053;DHT22;1536;51.098;6.414;2023-08-01T04:37:07;18.40;99.90
3053;DHT22;1536;51.098;6.414;2023-08-01T04:39:35;18.40;99.90
3053;DHT22;1536;51.098;6.414;2023-08-01T04:42:03;18.40;99.90
3053;DHT22;1536;51.098;6.414;2023-08-01T04:44:31;18.40;99.90
3053;DHT22;1536;51.098;6.414;2023-08-01T04:46:58;18.40;99.90
3053;DHT22;1536;51.098;6.414;2023-08-01T04:49:26;18.40;99.90
3053;DHT22;1536;51.098;6.414;2023-08-01T04:51:53;18.40;99.90
3053;DHT22;1536;51.098;6.414;2023-08-01T04:54:20;18.40;99.90
3053;DHT22;1536;51.098;6.414;2023-08-01T04:56:48;18.40;99.90
3053;DHT22;1536;51.098;6.414;2023-08-01T04:59:15;18.30;99.90
3053;DHT22;1536;51.098;6.414;2023-08-01T05:01:42;18.30;99.90
3053;DHT22;1536;51.098;6.414;2023-08-01T05:04:09;18.30;99.90
3053;DHT22;1536;51.098;6.414;2023-08-01T05:06:37;18.30;99.90
3053;DHT22;1536;51.098;6.414;2023-08-01T05:09:05;18.30;99.90
3053;DHT22;1536;51.098;6.414;2023-08-01T05:11:32;18.30;99.90
3053;DHT22;1536;51.098;6.414;2023-08-01T05:13:59;18.30;99.90
3053;DHT22;1536;51.098;6.414;2023-08-01T05:16:28;18.30;99.90
3053;DHT22;1536;51.098;6.414;2023-08-01T05:18:54;18.30;99.90
3053;DHT22;1536;51.098;6.414;2023-08-01T05:21:21;18.30;99.90
3053;DHT22;1536;51.098;6.414;2023-08-01T05:23:49;18.30;99.90
3053;DHT22;1536;51.098;6.414;2023-08-01T05:26:16;18.30;99.90
3053;DHT22;1536;51.098;6.414;2023-08-01T05:28:43;18.30;99.90
3053;DHT22;1536;51.098;6.414;2023-08-01T05:31:10;18.30;99.90
3053;DHT22;1536;51.098;6.414;2023-08-01T05:33:36;18.30;99.90
3053;DHT22;1536;51.098;6.414;2023-08-01T05:36:03;18.30;99.90
3053;DHT22;1536;51.098;6.414;2023-08-01T05:38:30;18.40;99.90
3053;DHT22;1536;51.098;6.414;2023-08-01T05:40:58;18.40;99.90
3053;DHT22;1536;51.098;6.414;2023-08-01T05:43:25;18.40;99.90
3053;DHT22;1536;51.098;6.414;2023-08-01T05:45:52;18.40;99.90
3053;DHT22;1536;51.098;6.414;2023-08-01T05:48:19;18.40;99.90
3053;DHT22;1536;51.098;6.414;2023-08-01T05:50:45;18.40;99.90
3053;DHT22;1536;51.098;6.414;2023-08-01T05:53:12;18.40;99.90
3053;DHT22;1536;51.098;6.414;2023-08-01T05:55:39;18.40;99.90
3053;DHT22;1536;51.098;6.414;2023-08-01T05:58:07;18.40;99.90
3053;DHT22;1536;51.098;6.414;2023-08-01T06:00:34;18.40;99.90
3053;DHT22;1536;51.098;6.414;2023-08-01T06:03:00;18.40;99.90
3053;DHT22;1536;51.098;6.414;2023-08-01T06:05:27;18.50;99.90
3053;DHT22;1536;51.098;6.414;2023-08-01T06:07:54;18.50;99.90
3053;DHT22;1536;51.098;6.414;2023-08-01T06:10:21;18.50;99.90
3053;DHT22;1536;51.098;6.414;2023-08-01T06:12:48;18.60;99.90
3053;DHT22;1536;51.098;6.414;2023-08-01T06:15:16;18.50;99.90
3053;DHT22;1536;51.098;6.414;2023-08-01T06:17:43;18.60;99.90
3053;DHT22;1536;51.098;6.414;2023-08-01T06:20:11;18.60;99.90
3053;DHT22;1536;51.098;6.414;2023-08-01T06:22:38;18.60;99.90
3053;DHT22;1536;51.098;6.414;2023-08-01T06:25:06;18.60;99.90
3053;DHT22;1536;51.098;6.414;2023-08-01T06:27:33;18.60;99.90
3053;DHT22;1536;51.098;6.414;2023-08-01T06:29:59;18.60;99.90
3053;DHT22;1536;51.098;6.414;2023-08-01T06:32:27;18.60;99.90
3053;DHT22;1536;51.098;6.414;2023-08-01T06:34:54;18.60;99.90
3053;DHT22;1536;51.098;6.414;2023-08-01T06:37:21;18.70;99.90
3053;DHT22;1536;51.098;6.414;2023-08-01T06:39:48;18.70;99.90
3053;DHT22;1536;51.098;6.414;2023-08-01T06:42:15;18.70;99.90
3053;DHT22;1536;51.098;6.414;2023-08-01T06:44:42;18.70;99.90
3053;DHT22;1536;51.098;6.414;2023-08-01T06:47:08;18.80;99.90
3053;DHT22;1536;51.098;6.414;2023-08-01T06:49:37;18.80;99.90
3053;DHT22;1536;51.098;6.414;2023-08-01T06:52:04;18.80;99.90
3053;DHT22;1536;51.098;6.414;2023-08-01T06:54:32;18.90;99.90
3053;DHT22;1536;51.098;6.414;2023-08-01T06:56:58;18.90;99.90
3053;DHT22;1536;51.098;6.414;2023-08-01T06:59:26;18.90;99.90
3053;DHT22;1536;51.098;6.414;2023-08-01T07:01:55;18.90;99.90
3053;DHT22;1536;51.098;6.414;2023-08-01T07:04:22;18.90;99.90
3053;DHT22;1536;51.098;6.414;2023-08-01T07:06:50;19.00;99.90
3053;DHT22;1536;51.098;6.414;2023-08-01T07:09:17;19.00;99.90
3053;DHT22;1536;51.098;6.414;2023-08-01T07:11:43;19.00;99.90
3053;DHT22;1536;51.098;6.414;2023-08-01T07:14:10;19.10;99.90
3053;DHT22;1536;51.098;6.414;2023-08-01T07:16:37;19.10;99.90
3053;DHT22;1536;51.098;6.414;2023-08-01T07:19:04;19.10;99.90
3053;DHT22;1536;51.098;6.414;2023-08-01T07:21:30;19.10;99.90
3053;DHT22;1536;51.098;6.414;2023-08-01T07:23:59;19.10;99.90
3053;DHT22;1536;51.098;6.414;2023-08-01T07:26:25;19.10;99.90
3053;DHT22;1536;51.098;6.414;2023-08-01T07:28:58;19.20;99.90
3053;DHT22;1536;51.098;6.414;2023-08-01T07:31:25;19.20;99.90
3053;DHT22;1536;51.098;6.414;2023-08-01T07:33:51;19.20;99.90
3053;DHT22;1536;51.098;6.414;2023-08-01T07:36:19;19.30;99.90
3053;DHT22;1536;51.098;6.414;2023-08-01T07:38:47;19.30;99.90
3053;DHT22;1536;51.098;6.414;2023-08-01T07:41:15;19.30;99.90
3053;DHT22;1536;51.098;6.414;2023-08-01T07:43:42;19.30;99.90
3053;DHT22;1536;51.098;6.414;2023-08-01T07:46:08;19.30;99.90
3053;DHT22;1536;51.098;6.414;2023-08-01T07:48:37;19.40;99.90
3053;DHT22;1536;51.098;6.414;2023-08-01T07:51:04;19.40;99.90
3053;DHT22;1536;51.098;6.414;2023-08-01T07:53:33;19.50;99.90
3053;DHT22;1536;51.098;6.414;2023-08-01T07:56:02;19.50;99.90
3053;DHT22;1536;51.098;6.414;2023-08-01T07:58:33;19.50;99.90
3053;DHT22;1536;51.098;6.414;2023-08-01T08:01:03;19.50;99.90
3053;DHT22;1536;51.098;6.414;2023-08-01T08:03:29;19.50;99.90
3053;DHT22;1536;51.098;6.414;2023-08-01T08:05:56;19.50;99.90
3053;DHT22;1536;51.098;6.414;2023-08-01T08:08:23;19.50;99.90
3053;DHT22;1536;51.098;6.414;2023-08-01T08:10:50;19.50;99.90
3053;DHT22;1536;51.098;6.414;2023-08-01T08:13:17;19.50;99.90
3053;DHT22;1536;51.098;6.414;2023-08-01T08:15:47;19.50;99.90
3053;DHT22;1536;51.098;6.414;2023-08-01T08:18:14;19.60;99.90
3053;DHT22;1536;51.098;6.414;2023-08-01T08:20:42;19.70;99.90
3053;DHT22;1536;51.098;6.414;2023-08-01T08:23:09;19.70;99.90
3053;DHT22;1536;51.098;6.414;2023-08-01T08:25:37;19.80;99.90
3053;DHT22;1536;51.098;6.414;2023-08-01T08:28:04;19.80;99.90
3053;DHT22;1536;51.098;6.414;2023-08-01T08:30:30;19.80;99.90
3053;DHT22;1536;51.098;6.414;2023-08-01T08:32:59;19.90;99.90
3053;DHT22;1536;51.098;6.414;2023-08-01T08:35:29;19.90;99.90
3053;DHT22;1536;51.098;6.414;2023-08-01T08:37:58;20.00;99.90
3053;DHT22;1536;51.098;6.414;2023-08-01T08:40:25;20.00;99.90
3053;DHT22;1536;51.098;6.414;2023-08-01T08:42:52;20.00;99.90
3053;DHT22;1536;51.098;6.414;2023-08-01T08:45:20;20.00;99.90
3053;DHT22;1536;51.098;6.414;2023-08-01T08:47:52;20.00;99.90
3053;DHT22;1536;51.098;6.414;2023-08-01T08:50:22;20.00;99.90
3053;DHT22;1536;51.098;6.414;2023-08-01T08:52:49;20.10;99.90
3053;DHT22;1536;51.098;6.414;2023-08-01T08:55:17;20.10;99.90
3053;DHT22;1536;51.098;6.414;2023-08-01T08:57:47;20.10;99.90
3053;DHT22;1536;51.098;6.414;2023-08-01T09:00:16;20.20;99.90
3053;DHT22;1536;51.098;6.414;2023-08-01T09:02:43;20.30;99.90
3053;DHT22;1536;51.098;6.414;2023-08-01T09:05:10;20.40;99.90
3053;DHT22;1536;51.098;6.414;2023-08-01T09:07:42;20.40;99.90
3053;DHT22;1536;51.098;6.414;2023-08-01T09:10:09;20.60;99.90
3053;DHT22;1536;51.098;6.414;2023-08-01T09:12:35;20.60;99.90
3053;DHT22;1536;51.098;6.414;2023-08-01T09:15:02;20.60;99.90
3053;DHT22;1536;51.098;6.414;2023-08-01T09:17:29;20.60;99.90
3053;DHT22;1536;51.098;6.414;2023-08-01T09:20:02;20.70;99.90
3053;DHT22;1536;51.098;6.414;2023-08-01T09:22:30;20.70;99.90
3053;DHT22;1536;51.098;6.414;2023-08-01T09:25:08;20.70;99.90
3053;DHT22;1536;51.098;6.414;2023-08-01T09:27:35;20.70;99.90
3053;DHT22;1536;51.098;6.414;2023-08-01T09:30:07;20.70;99.90
3053;DHT22;1536;51.098;6.414;2023-08-01T09:32:34;20.70;99.90
3053;DHT22;1536;51.098;6.414;2023-08-01T09:35:01;20.70;99.90
3053;DHT22;1536;51.098;6.414;2023-08-01T09:37:38;20.70;99.90
3053;DHT22;1536;51.098;6.414;2023-08-01T09:40:06;20.80;99.90
3053;DHT22;1536;51.098;6.414;2023-08-01T09:42:41;20.80;99.90
3053;DHT22;1536;51.098;6.414;2023-08-01T09:45:12;20.90;99.90
3053;DHT22;1536;51.098;6.414;2023-08-01T09:47:41;21.00;99.90
3053;DHT22;1536;51.098;6.414;2023-08-01T09:50:09;21.00;99.90
3053;DHT22;1536;51.098;6.414;2023-08-01T09:52:36;21.10;99.90
3053;DHT22;1536;51.098;6.414;2023-08-01T09:55:04;21.20;99.90
3053;DHT22;1536;51.098;6.414;2023-08-01T09:57:31;21.20;99.90
3053;DHT22;1536;51.098;6.414;2023-08-01T09:59:59;21.20;99.90
3053;DHT22;1536;51.098;6.414;2023-08-01T10:02:30;21.20;99.90
3053;DHT22;1536;51.098;6.414;2023-08-01T10:04:58;21.20;99.90
3053;DHT22;1536;51.098;6.414;2023-08-01T10:07:29;21.30;99.90
3053;DHT22;1536;51.098;6.414;2023-08-01T10:09:58;21.30;99.90
3053;DHT22;1536;51.098;6.414;2023-08-01T10:12:26;21.40;99.90
3053;DHT22;1536;51.098;6.414;2023-08-01T10:14:53;21.40;99.90
3053;DHT22;1536;51.098;6.414;2023-08-01T10:17:22;21.40;99.90
3053;DHT22;1536;51.098;6.414;2023-08-01T10:19:50;21.50;99.90
3053;DHT22;1536;51.098;6.414;2023-08-01T10:22:17;21.50;99.90
3053;DHT22;1536;51.098;6.414;2023-08-01T10:24:45;21.60;99.90
3053;DHT22;1536;51.098;6.414;2023-08-01T10:27:13;21.60;99.90
3053;DHT22;1536;51.098;6.414;2023-08-01T10:29:41;21.60;99.90
3053;DHT22;1536;51.098;6.414;2023-08-01T10:32:09;21.70;99.90
3053;DHT22;1536;51.098;6.414;2023-08-01T10:34:38;21.80;99.90
3053;DHT22;1536;51.098;6.414;2023-08-01T10:37:05;21.80;99.90
3053;DHT22;1536;51.098;6.414;2023-08-01T10:39:32;21.70;99.90
3053;DHT22;1536;51.098;6.414;2023-08-01T10:41:59;21.70;99.90
3053;DHT22;1536;51.098;6.414;2023-08-01T10:44:27;21.70;99.90
3053;DHT22;1536;51.098;6.414;2023-08-01T10:47:01;21.80;99.90
3053;DHT22;1536;51.098;6.414;2023-08-01T10:49:36;22.00;99.90
3053;DHT22;1536;51.098;6.414;2023-08-01T10:52:16;22.10;99.90
3053;DHT22;1536;51.098;6.414;2023-08-01T10:54:43;22.20;99.90
3053;DHT22;1536;51.098;6.414;2023-08-01T10:57:15;22.20;99.90
3053;DHT22;1536;51.098;6.414;2023-08-01T10:59:43;22.30;99.90
3053;DHT22;1536;51.098;6.414;2023-08-01T11:02:10;22.30;99.90
3053;DHT22;1536;51.098;6.414;2023-08-01T11:04:36;22.50;99.90
3053;DHT22;1536;51.098;6.414;2023-08-01T11:07:05;22.60;99.90
3053;DHT22;1536;51.098;6.414;2023-08-01T11:09:31;22.80;99.90
3053;DHT22;1536;51.098;6.414;2023-08-01T11:11:59;22.90;99.90
3053;DHT22;1536;51.098;6.414;2023-08-01T11:14:27;22.90;99.90
3053;DHT22;1536;51.098;6.414;2023-08-01T11:16:55;23.00;99.90
3053;DHT22;1536;51.098;6.414;2023-08-01T11:19:25;23.00;99.90
3053;DHT22;1536;51.098;6.414;2023-08-01T11:21:53;23.10;99.90
3053;DHT22;1536;51.098;6.414;2023-08-01T11:24:24;23.10;99.90
3053;DHT22;1536;51.098;6.414;2023-08-01T11:26:53;23.10;99.90
3053;DHT22;1536;51.098;6.414;2023-08-01T11:29:20;23.10;99.90
3053;DHT22;1536;51.098;6.414;2023-08-01T11:31:54;23.00;99.90
3053;DHT22;1536;51.098;6.414;2023-08-01T11:34:21;22.90;99.90
3053;DHT22;1536;51.098;6.414;2023-08-01T11:36:48;22.70;99.90
3053;DHT22;1536;51.098;6.414;2023-08-01T11:39:16;22.60;99.90
3053;DHT22;1536;51.098;6.414;2023-08-01T11:41:45;22.60;99.90
3053;DHT22;1536;51.098;6.414;2023-08-01T11:44:11;22.50;99.90
3053;DHT22;1536;51.098;6.414;2023-08-01T11:46:39;22.40;99.90
3053;DHT22;1536;51.098;6.414;2023-08-01T11:49:07;22.30;99.90
3053;DHT22;1536;51.098;6.414;2023-08-01T11:51:39;22.20;99.90
3053;DHT22;1536;51.098;6.414;2023-08-01T11:54:07;22.00;99.90
3053;DHT22;1536;51.098;6.414;2023-08-01T11:56:36;21.90;99.90
3053;DHT22;1536;51.098;6.414;2023-08-01T11:59:09;21.70;99.90
3053;DHT22;1536;51.098;6.414;2023-08-01T12:01:39;21.50;99.90
3053;DHT22;1536;51.098;6.414;2023-08-01T12:04:06;21.50;99.90
3053;DHT22;1536;51.098;6.414;2023-08-01T12:06:33;21.50;99.90
3053;DHT22;1536;51.098;6.414;2023-08-01T12:09:07;21.60;99.90
3053;DHT22;1536;51.098;6.414;2023-08-01T12:11:33;21.70;99.90
3053;DHT22;1536;51.098;6.414;2023-08-01T12:14:01;21.90;99.90
3053;DHT22;1536;51.098;6.414;2023-08-01T12:16:30;22.00;99.90
3053;DHT22;1536;51.098;6.414;2023-08-01T12:18:57;22.10;99.90
3053;DHT22;1536;51.098;6.414;2023-08-01T12:21:24;22.20;99.90
3053;DHT22;1536;51.098;6.414;2023-08-01T12:23:50;22.20;99.90
3053;DHT22;1536;51.098;6.414;2023-08-01T12:26:17;22.10;99.90
3053;DHT22;1536;51.098;6.414;2023-08-01T12:28:44;22.10;99.90
3053;DHT22;1536;51.098;6.414;2023-08-01T12:31:15;22.00;99.90
3053;DHT22;1536;51.098;6.414;2023-08-01T12:33:44;21.90;99.90
3053;DHT22;1536;51.098;6.414;2023-08-01T12:36:11;21.80;99.90
3053;DHT22;1536;51.098;6.414;2023-08-01T12:38:38;21.70;99.90
3053;DHT22;1536;51.098;6.414;2023-08-01T12:41:05;21.70;99.90
3053;DHT22;1536;51.098;6.414;2023-08-01T12:43:32;21.60;99.90
3053;DHT22;1536;51.098;6.414;2023-08-01T12:45:58;21.60;99.90
3053;DHT22;1536;51.098;6.414;2023-08-01T12:48:25;21.70;99.90
3053;DHT22;1536;51.098;6.414;2023-08-01T12:50:54;21.70;99.90
3053;DHT22;1536;51.098;6.414;2023-08-01T12:53:21;21.70;99.90
3053;DHT22;1536;51.098;6.414;2023-08-01T12:55:49;21.60;99.90
3053;DHT22;1536;51.098;6.414;2023-08-01T12:58:17;21.60;99.90
3053;DHT22;1536;51.098;6.414;2023-08-01T13:00:44;21.50;99.90
3053;DHT22;1536;51.098;6.414;2023-08-01T13:03:11;21.50;99.90
3053;DHT22;1536;51.098;6.414;2023-08-01T13:05:40;21.40;99.90
3053;DHT22;1536;51.098;6.414;2023-08-01T13:08:09;21.40;99.90
3053;DHT22;1536;51.098;6.414;2023-08-01T13:10:37;21.50;99.90
3053;DHT22;1536;51.098;6.414;2023-08-01T13:13:05;21.60;99.90
3053;DHT22;1536;51.098;6.414;2023-08-01T13:15:32;21.70;99.90
3053;DHT22;1536;51.098;6.414;2023-08-01T13:17:59;21.80;99.90
3053;DHT22;1536;51.098;6.414;2023-08-01T13:20:26;21.80;99.90
3053;DHT22;1536;51.098;6.414;2023-08-01T13:22:53;21.70;99.90
3053;DHT22;1536;51.098;6.414;2023-08-01T13:25:21;21.70;99.90
3053;DHT22;1536;51.098;6.414;2023-08-01T13:27:47;21.70;99.90
3053;DHT22;1536;51.098;6.414;2023-08-01T13:30:14;21.70;99.90
3053;DHT22;1536;51.098;6.414;2023-08-01T13:32:43;21.80;99.90
3053;DHT22;1536;51.098;6.414;2023-08-01T13:35:10;21.90;99.90
3053;DHT22;1536;51.098;6.414;2023-08-01T13:37:36;21.90;99.90
3053;DHT22;1536;51.098;6.414;2023-08-01T13:40:04;22.00;99.90
3053;DHT22;1536;51.098;6.414;2023-08-01T13:42:33;21.90;99.90
3053;DHT22;1536;51.098;6.414;2023-08-01T13:45:00;21.90;99.90
3053;DHT22;1536;51.098;6.414;2023-08-01T13:47:27;21.80;99.90
3053;DHT22;1536;51.098;6.414;2023-08-01T13:49:53;21.80;99.90
3053;DHT22;1536;51.098;6.414;2023-08-01T13:52:20;21.90;99.90
3053;DHT22;1536;51.098;6.414;2023-08-01T13:54:47;22.00;99.90
3053;DHT22;1536;51.098;6.414;2023-08-01T13:57:14;22.10;99.90
3053;DHT22;1536;51.098;6.414;2023-08-01T13:59:42;22.10;99.90
3053;DHT22;1536;51.098;6.414;2023-08-01T14:02:08;22.20;99.90
3053;DHT22;1536;51.098;6.414;2023-08-01T14:04:35;22.20;99.90
3053;DHT22;1536;51.098;6.414;2023-08-01T14:07:02;22.20;99.90
3053;DHT22;1536;51.098;6.414;2023-08-01T14:09:29;22.20;99.90
3053;DHT22;1536;51.098;6.414;2023-08-01T14:11:57;22.20;99.90
3053;DHT22;1536;51.098;6.414;2023-08-01T14:14:25;22.20;99.90
3053;DHT22;1536;51.098;6.414;2023-08-01T14:16:53;22.20;99.90
3053;DHT22;1536;51.098;6.414;2023-08-01T14:19:21;22.30;99.90
3053;DHT22;1536;51.098;6.414;2023-08-01T14:21:47;22.30;99.90
3053;DHT22;1536;51.098;6.414;2023-08-01T14:24:14;22.40;99.90
3053;DHT22;1536;51.098;6.414;2023-08-01T14:26:41;22.60;99.90
3053;DHT22;1536;51.098;6.414;2023-08-01T14:29:14;22.70;99.90
3053;DHT22;1536;51.098;6.414;2023-08-01T14:31:40;22.80;99.90
3053;DHT22;1536;51.098;6.414;2023-08-01T14:34:08;22.80;99.90
3053;DHT22;1536;51.098;6.414;2023-08-01T14:36:35;22.80;99.90
3053;DHT22;1536;51.098;6.414;2023-08-01T14:39:02;22.80;99.90
3053;DHT22;1536;51.098;6.414;2023-08-01T14:41:30;22.80;99.90
3053;DHT22;1536;51.098;6.414;2023-08-01T14:43:57;22.90;99.90
3053;DHT22;1536;51.098;6.414;2023-08-01T14:46:24;22.80;99.90
3053;DHT22;1536;51.098;6.414;2023-08-01T14:48:50;22.70;99.90
3053;DHT22;1536;51.098;6.414;2023-08-01T14:51:18;22.60;99.90
3053;DHT22;1536;51.098;6.414;2023-08-01T14:53:45;22.60;99.90
3053;DHT22;1536;51.098;6.414;2023-08-01T14:56:12;22.50;99.90
3053;DHT22;1536;51.098;6.414;2023-08-01T14:58:39;22.40;99.90
3053;DHT22;1536;51.098;6.414;2023-08-01T15:01:11;22.30;99.90
3053;DHT22;1536;51.098;6.414;2023-08-01T15:03:38;22.30;99.90
3053;DHT22;1536;51.098;6.414;2023-08-01T15:06:05;22.20;99.90
3053;DHT22;1536;51.098;6.414;2023-08-01T15:08:34;22.10;99.90
3053;DHT22;1536;51.098;6.414;2023-08-01T15:11:03;22.10;99.90
3053;DHT22;1536;51.098;6.414;2023-08-01T15:13:31;22.20;99.90
3053;DHT22;1536;51.098;6.414;2023-08-01T15:15:58;22.50;99.90
3053;DHT22;1536;51.098;6.414;2023-08-01T15:18:25;22.80;99.90
3053;DHT22;1536;51.098;6.414;2023-08-01T15:20:52;22.90;99.90
3053;DHT22;1536;51.098;6.414;2023-08-01T15:23:19;22.90;99.90
3053;DHT22;1536;51.098;6.414;2023-08-01T15:25:53;22.80;99.90
3053;DHT22;1536;51.098;6.414;2023-08-01T15:28:21;22.70;99.90
3053;DHT22;1536;51.098;6.414;2023-08-01T15:30:48;22.90;99.90
3053;DHT22;1536;51.098;6.414;2023-08-01T15:33:16;22.90;99.90
3053;DHT22;1536;51.098;6.414;2023-08-01T15:35:42;22.80;99.90
3053;DHT22;1536;51.098;6.414;2023-08-01T15:38:09;22.70;99.90
3053;DHT22;1536;51.098;6.414;2023-08-01T15:40:36;22.60;99.90
3053;DHT22;1536;51.098;6.414;2023-08-01T15:43:04;22.50;99.90
3053;DHT22;1536;51.098;6.414;2023-08-01T15:45:31;22.40;99.90
3053;DHT22;1536;51.098;6.414;2023-08-01T15:47:57;22.30;99.90
3053;DHT22;1536;51.098;6.414;2023-08-01T15:50:24;22.20;99.90
3053;DHT22;1536;51.098;6.414;2023-08-01T15:52:51;22.20;99.90
3053;DHT22;1536;51.098;6.414;2023-08-01T15:55:18;22.20;99.90
3053;DHT22;1536;51.098;6.414;2023-08-01T15:57:44;22.10;99.90
3053;DHT22;1536;51.098;6.414;2023-08-01T16:00:13;22.10;99.90
3053;DHT22;1536;51.098;6.414;2023-08-01T16:02:40;22.20;99.90
3053;DHT22;1536;51.098;6.414;2023-08-01T16:05:07;22.30;99.90